Terminal Aerodrome Forecast
Issued by NWS Binghamton, NY

Home | Current Version | Previous Version | Text Only | Print | Product List | Glossary On
Versions: 1 2 3 4 5 6 7 8 9 10 11 12 13 14 15 16 17 18 19 20
000
FTUS41 KBGM 272300
TAFAVP
TAF
KAVP 272332Z 2800/2824 29005KT P6SM BKN060
     FM281200 30005KT P6SM -SHSN SCT025 BKN035
     FM281800 27008KT P6SM BKN060=

USA.gov is the U.S. government's official web portal to all federal, state and local government web resources and services.